Ashuelot, New Hampshire
Current Conditions -  °F | °C
As of 11:35 PM on Saturday 22 Nov 2014 (Local Time) from KEEN Reporting Station
Overcast Overcast  
Wind Chill:   Ceiling: 2900
Heat Index:   Visibility: 10mi
Dew Point: -8°   Wind: 5mph
Humidity: 45%   Direction: 210°SSW
Pressure: 30.06"   Gusts: NA
Location:  42.78°N, 72.42°W
Report Text: KEEN 230435Z AUTO 21004KT 10SM OVC029 03/M08 A3006 RMK AO1
Loading
Personal Weather Stations






























Interactive Weather Map New forecast layout! Learn more

10-Day Weather Forecast

Advertisements
Track Severe Weather on mobile